Time;durP1;ratioP1;P1;durP2;ratioP2;P2;SDS_P1;SDS_P2;PMS_P1;PMS_P2;Temp;Humidity;BMP_temperature;BMP_pressure;BME280_temperature;BME280_humidity;BME280_pressure;Samples;Min_cycle;Max_cycle;Signal;HPM_P1;HPM_P2
2023/06/13 00:01:02;;;;;;;3.60;3.00;;;22.60;56.10;;;;;;5074275;28;20109;-89
2023/06/13 00:03:29;;;;;;;3.85;3.10;;;22.50;56.20;;;;;;5074380;28;20135;-89
2023/06/13 00:05:56;;;;;;;3.88;3.47;;;22.50;56.30;;;;;;5074475;28;20385;-89
2023/06/13 00:08:24;;;;;;;3.53;3.22;;;22.50;56.40;;;;;;5075301;28;20025;-90
2023/06/13 00:10:50;;;;;;;3.33;2.80;;;22.40;56.40;;;;;;5075330;28;20020;-90
2023/06/13 00:13:19;;;;;;;4.40;3.67;;;22.40;56.40;;;;;;5076236;28;20024;-90
2023/06/13 00:15:50;;;;;;;4.68;3.35;;;22.40;56.50;;;;;;5093475;28;20043;-88
2023/06/13 00:18:19;;;;;;;4.18;3.45;;;22.40;56.50;;;;;;5097050;28;20032;-89
2023/06/13 00:20:45;;;;;;;5.50;3.80;;;22.30;56.50;;;;;;5098674;28;20072;-88
2023/06/13 00:23:24;;;;;;;;;;;;;;;;;;;;;
2023/06/13 00:25:51;;;;;;;4.40;3.60;;;22.30;56.70;;;;;;5091131;28;20039;-89
2023/06/13 00:28:19;;;;;;;4.45;3.30;;;22.20;56.70;;;;;;5075796;28;20062;-89
2023/06/13 00:30:53;;;;;;;3.72;3.20;;;22.20;56.80;;;;;;5074334;28;20028;-90
2023/06/13 00:33:19;;;;;;;4.75;3.30;;;22.20;56.80;;;;;;5074158;28;20031;-90
2023/06/13 00:35:45;;;;;;;5.40;3.38;;;22.20;56.90;;;;;;5072701;28;20017;-90
2023/06/13 00:38:23;;;;;;;3.72;3.08;;;22.10;56.90;;;;;;5074173;28;20028;-89
2023/06/13 00:40:50;;;;;;;4.25;3.50;;;22.10;57.10;;;;;;5073777;28;20028;-90
2023/06/13 00:43:17;;;;;;;4.50;3.67;;;22.10;57.20;;;;;;5073538;28;20044;-89
2023/06/13 00:45:43;;;;;;;5.57;3.58;;;22.00;57.20;;;;;;5057088;28;20020;-89
2023/06/13 00:48:09;;;;;;;5.68;3.50;;;22.00;57.20;;;;;;5073575;28;20119;-90
2023/06/13 00:50:43;;;;;;;4.18;3.40;;;22.00;57.40;;;;;;5074994;28;20365;-90
2023/06/13 00:53:16;;;;;;;4.25;3.17;;;21.90;57.50;;;;;;5074898;28;20089;-89
2023/06/13 00:55:42;;;;;;;3.60;3.30;;;21.90;57.70;;;;;;5073255;28;20082;-89
2023/06/13 00:58:10;;;;;;;4.13;3.28;;;21.80;57.70;;;;;;5073885;28;20029;-89
2023/06/13 01:00:38;;;;;;;4.53;3.70;;;21.90;57.90;;;;;;5073608;28;20020;-89
2023/06/13 01:03:09;;;;;;;5.35;3.72;;;21.90;58.10;;;;;;5073315;28;20036;-90
2023/06/13 01:05:36;;;;;;;5.22;3.70;;;21.80;58.20;;;;;;5057571;28;20039;-89
2023/06/13 01:08:06;;;;;;;5.18;3.55;;;21.80;58.20;;;;;;5074306;28;20028;-89
2023/06/13 01:10:33;;;;;;;7.43;3.53;;;21.80;58.30;;;;;;5073387;28;20021;-89
2023/06/13 01:13:05;;;;;;;5.72;3.50;;;21.70;58.30;;;;;;5072970;28;20032;-90
2023/06/13 01:15:42;;;;;;;5.22;3.72;;;21.70;58.40;;;;;;5073227;28;20027;-89
2023/06/13 01:18:10;;;;;;;5.55;3.60;;;21.60;58.30;;;;;;5074462;28;20060;-90
2023/06/13 01:20:37;;;;;;;5.28;3.65;;;21.60;58.40;;;;;;5074268;28;20086;-89
2023/06/13 01:23:15;;;;;;;3.78;3.38;;;21.60;58.40;;;;;;5073105;28;20028;-89
2023/06/13 01:25:59;;;;;;;6.22;3.13;;;21.50;58.60;;;;;;5074501;28;20082;-89
2023/06/13 01:28:26;;;;;;;4.38;3.30;;;21.50;58.60;;;;;;5073625;28;20028;-89
2023/06/13 01:30:53;;;;;;;4.65;3.70;;;21.50;58.60;;;;;;5073106;28;20020;-89
2023/06/13 01:33:20;;;;;;;4.93;3.78;;;21.50;58.70;;;;;;5073051;28;20055;-89
2023/06/13 01:35:47;;;;;;;3.88;3.50;;;21.50;58.80;;;;;;5073095;28;20158;-89
2023/06/13 01:38:13;;;;;;;5.38;3.97;;;21.50;59.00;;;;;;5073344;28;20025;-89
2023/06/13 01:40:39;;;;;;;5.57;3.42;;;21.40;59.10;;;;;;5056677;28;20020;-89
2023/06/13 01:43:05;;;;;;;4.57;3.50;;;21.40;59.30;;;;;;5056396;28;20040;-89
2023/06/13 01:45:31;;;;;;;4.57;3.67;;;21.30;59.50;;;;;;5072983;28;20021;-89
2023/06/13 01:48:29;;;;;;;4.40;3.30;;;21.30;59.70;;;;;;5058698;28;20024;-89
2023/06/13 01:51:07;;;;;;;4.85;3.65;;;21.20;59.80;;;;;;5078112;28;20055;-89
2023/06/13 01:53:39;;;;;;;4.32;3.50;;;21.20;59.90;;;;;;5076870;28;20415;-89
2023/06/13 01:56:12;;;;;;;5.05;3.95;;;21.20;60.10;;;;;;5076559;28;20027;-89
2023/06/13 01:58:54;;;;;;;4.55;3.42;;;21.10;60.10;;;;;;5076969;28;20069;-89
2023/06/13 02:01:21;;;;;;;4.90;4.00;;;21.10;60.20;;;;;;5076690;28;20024;-89
2023/06/13 02:03:49;;;;;;;4.50;3.65;;;21.10;60.20;;;;;;5076834;28;20519;-89
2023/06/13 02:06:16;;;;;;;6.40;3.63;;;21.00;60.30;;;;;;5060395;28;20047;-89
2023/06/13 02:08:43;;;;;;;4.95;3.30;;;21.00;60.30;;;;;;5060772;28;20474;-90
2023/06/13 02:11:09;;;;;;;4.03;3.35;;;21.00;60.40;;;;;;5077809;28;20473;-88
2023/06/13 02:13:35;;;;;;;4.82;3.45;;;21.00;60.40;;;;;;5083681;28;20012;-89
2023/06/13 02:16:00;;;;;;;4.75;4.03;;;20.90;60.40;;;;;;5099537;28;20032;-88
2023/06/13 02:18:27;;;;;;;5.25;3.80;;;20.90;60.50;;;;;;5099560;28;20012;-89
2023/06/13 02:20:54;;;;;;;5.57;3.67;;;20.90;60.60;;;;;;5099146;28;20005;-89
2023/06/13 02:23:20;;;;;;;4.20;3.80;;;20.90;60.70;;;;;;5097295;28;20051;-90
2023/06/13 02:25:51;;;;;;;6.57;3.70;;;20.80;60.70;;;;;;5094732;28;20107;-90
2023/06/13 02:28:17;;;;;;;3.95;3.55;;;20.80;60.70;;;;;;5076817;28;20062;-90
2023/06/13 02:30:44;;;;;;;4.90;3.35;;;20.80;60.80;;;;;;5076380;28;20108;-89
2023/06/13 02:33:13;;;;;;;4.05;3.63;;;20.70;60.70;;;;;;5076118;28;20021;-90
2023/06/13 02:35:39;;;;;;;3.85;3.40;;;20.70;60.80;;;;;;5077134;28;20027;-89
2023/06/13 02:38:07;;;;;;;5.55;3.85;;;20.70;60.80;;;;;;5075685;28;20544;-89
2023/06/13 02:40:37;;;;;;;5.35;4.05;;;20.60;60.70;;;;;;5075997;28;20408;-89
2023/06/13 02:43:03;;;;;;;5.68;3.75;;;20.60;60.80;;;;;;5075827;28;20028;-89
2023/06/13 02:45:28;;;;;;;5.90;4.10;;;20.60;60.90;;;;;;5075923;28;20082;-90
2023/06/13 02:47:54;;;;;;;5.18;3.83;;;20.60;60.90;;;;;;5075580;28;20043;-89
2023/06/13 02:50:21;;;;;;;5.55;3.92;;;20.60;61.00;;;;;;5076225;28;20021;-90
2023/06/13 02:52:50;;;;;;;4.15;3.63;;;20.50;61.00;;;;;;5077355;28;20111;-90
2023/06/13 02:55:17;;;;;;;4.40;3.88;;;20.50;61.10;;;;;;5079495;28;20017;-90
2023/06/13 02:57:45;;;;;;;7.15;3.70;;;20.50;61.10;;;;;;5079354;28;20040;-90
2023/06/13 03:00:12;;;;;;;4.72;4.15;;;20.50;61.10;;;;;;5078302;28;20070;-88
2023/06/13 03:02:38;;;;;;;4.32;3.75;;;20.50;61.10;;;;;;5078853;28;20041;-88
2023/06/13 03:05:14;;;;;;;4.20;3.78;;;20.40;61.20;;;;;;5080823;28;20024;-88
2023/06/13 03:07:46;;;;;;;5.18;3.85;;;20.40;61.20;;;;;;5080977;28;20021;-89
2023/06/13 03:10:12;;;;;;;4.57;3.65;;;20.40;61.30;;;;;;5076484;28;20036;-89
2023/06/13 03:12:38;;;;;;;4.90;3.97;;;20.40;61.30;;;;;;5059707;28;20044;-89
2023/06/13 03:15:12;;;;;;;5.93;4.25;;;20.30;61.30;;;;;;5076642;28;20154;-90
2023/06/13 03:17:39;;;;;;;4.85;4.15;;;20.30;61.30;;;;;;5059976;28;20032;-89
2023/06/13 03:20:05;;;;;;;4.47;3.63;;;20.20;61.30;;;;;;5075406;28;20408;-89
2023/06/13 03:22:31;;;;;;;6.30;3.85;;;20.20;61.40;;;;;;5075590;28;20044;-89
2023/06/13 03:25:00;;;;;;;4.97;3.47;;;20.20;61.40;;;;;;5075563;28;20059;-89
2023/06/13 03:27:25;;;;;;;4.60;4.03;;;20.20;61.50;;;;;;5075076;28;20113;-89
2023/06/13 03:29:51;;;;;;;4.18;3.65;;;20.10;61.50;;;;;;5076134;28;20050;-90
2023/06/13 03:32:17;;;;;;;4.65;3.40;;;20.10;61.50;;;;;;5074702;28;20028;-90
2023/06/13 03:34:43;;;;;;;5.18;3.83;;;20.10;61.60;;;;;;5075345;28;20485;-90
2023/06/13 03:37:09;;;;;;;4.50;3.78;;;20.10;61.60;;;;;;5074579;28;20059;-90
2023/06/13 03:39:35;;;;;;;5.55;3.85;;;20.10;61.50;;;;;;5074797;28;20025;-89
2023/06/13 03:42:01;;;;;;;9.45;4.15;;;20.10;61.60;;;;;;5074980;28;20059;-89
2023/06/13 03:44:28;;;;;;;6.10;3.83;;;20.10;61.60;;;;;;5075198;28;20032;-89
2023/06/13 03:46:57;;;;;;;4.88;3.83;;;20.10;61.70;;;;;;5076076;28;20028;-89
2023/06/13 03:49:26;;;;;;;6.00;3.70;;;20.00;61.70;;;;;;5074760;28;20024;-90
2023/06/13 03:51:52;;;;;;;6.03;3.95;;;20.00;61.80;;;;;;5074849;28;20385;-88
2023/06/13 03:54:21;;;;;;;4.28;3.58;;;20.00;61.90;;;;;;5074553;28;20024;-89
2023/06/13 03:56:49;;;;;;;4.47;3.88;;;19.90;61.90;;;;;;5075045;28;20023;-89
2023/06/13 03:59:16;;;;;;;4.80;3.88;;;19.90;62.10;;;;;;5076774;28;20085;-88
2023/06/13 04:01:41;;;;;;;5.57;4.28;;;19.90;62.10;;;;;;5076866;28;20028;-89
2023/06/13 04:04:10;;;;;;;5.78;4.00;;;19.80;62.10;;;;;;5060399;28;20016;-89
2023/06/13 04:06:37;;;;;;;5.30;3.33;;;19.80;62.10;;;;;;5080158;28;20020;-89
2023/06/13 04:09:06;;;;;;;7.22;4.68;;;19.90;62.30;;;;;;5048011;28;20058;-88
2023/06/13 04:11:36;;;;;;;5.30;4.07;;;19.90;62.30;;;;;;5091289;28;20031;-89
2023/06/13 04:14:02;;;;;;;4.45;4.05;;;19.80;62.30;;;;;;5091570;28;20059;-87
2023/06/13 04:16:28;;;;;;;4.85;4.03;;;19.80;62.30;;;;;;5091600;28;20350;-88
2023/06/13 04:18:57;;;;;;;5.22;4.07;;;19.80;62.40;;;;;;5068568;28;20028;-88
2023/06/13 04:21:26;;;;;;;5.35;4.18;;;19.80;62.50;;;;;;5078984;28;20025;-88
2023/06/13 04:23:52;;;;;;;5.20;3.90;;;19.70;62.50;;;;;;5076126;28;20024;-88
2023/06/13 04:26:18;;;;;;;6.03;4.30;;;19.70;62.60;;;;;;5074810;28;20032;-88
2023/06/13 04:28:45;;;;;;;6.43;4.93;;;19.70;62.80;;;;;;5075406;28;20029;-88
2023/06/13 04:31:11;;;;;;;4.43;4.03;;;19.70;63.00;;;;;;5074251;28;20047;-89
2023/06/13 04:33:41;;;;;;;4.68;3.65;;;19.70;63.10;;;;;;5074863;28;20017;-90
2023/06/13 04:36:13;;;;;;;5.85;4.03;;;19.70;63.30;;;;;;5074786;28;20080;-89
2023/06/13 04:38:39;;;;;;;4.38;3.80;;;19.70;63.40;;;;;;5057690;28;20029;-89
2023/06/13 04:41:09;;;;;;;7.57;4.57;;;19.70;63.60;;;;;;5057435;28;20460;-89
2023/06/13 04:43:36;;;;;;;4.88;4.00;;;19.70;63.70;;;;;;5073526;28;20039;-90
2023/06/13 04:46:02;;;;;;;6.45;4.25;;;19.70;63.70;;;;;;5073778;28;20466;-90
2023/06/13 04:48:28;;;;;;;6.25;4.20;;;19.70;63.80;;;;;;5073360;28;20017;-90
2023/06/13 04:50:54;;;;;;;6.35;4.35;;;19.70;63.90;;;;;;5057055;28;20025;-89
2023/06/13 04:53:23;;;;;;;4.80;4.03;;;19.70;64.00;;;;;;5056526;28;20111;-88
2023/06/13 04:55:49;;;;;;;5.88;4.18;;;19.70;64.00;;;;;;5073640;28;20043;-89
2023/06/13 04:58:17;;;;;;;7.57;4.32;;;19.80;64.10;;;;;;5072838;28;20098;-89
2023/06/13 05:00:47;;;;;;;6.68;4.10;;;19.80;64.20;;;;;;5057059;28;20029;-90
2023/06/13 05:03:16;;;;;;;7.93;3.92;;;19.80;64.30;;;;;;5073457;28;20537;-90
2023/06/13 05:05:43;;;;;;;6.05;4.47;;;19.90;64.40;;;;;;5073543;28;20028;-88
2023/06/13 05:08:10;;;;;;;5.40;4.20;;;19.90;64.40;;;;;;5056600;28;20020;-87
2023/06/13 05:10:36;;;;;;;6.50;4.45;;;19.80;64.50;;;;;;5073903;28;20031;-89
2023/06/13 05:13:01;;;;;;;4.78;4.28;;;19.90;64.70;;;;;;5073810;28;20032;-89
2023/06/13 05:15:27;;;;;;;5.32;4.13;;;19.90;64.80;;;;;;5074717;28;20048;-89
2023/06/13 05:17:54;;;;;;;4.93;3.80;;;19.90;64.90;;;;;;5056726;28;20111;-89
2023/06/13 05:20:26;;;;;;;5.93;4.40;;;20.00;64.90;;;;;;5073294;28;20036;-90
2023/06/13 05:22:53;;;;;;;5.75;4.35;;;20.00;64.90;;;;;;5075806;28;20025;-90
2023/06/13 05:25:20;;;;;;;5.60;4.30;;;20.00;64.80;;;;;;5060114;28;20033;-89
2023/06/13 05:27:46;;;;;;;4.90;4.18;;;20.10;64.90;;;;;;5078266;28;20024;-90
2023/06/13 05:30:12;;;;;;;8.88;4.82;;;20.10;64.90;;;;;;5078015;28;20021;-90
2023/06/13 05:32:41;;;;;;;5.78;4.47;;;20.10;64.80;;;;;;5077763;28;20040;-90
2023/06/13 05:35:09;;;;;;;4.78;4.10;;;20.10;65.20;;;;;;5076738;28;20024;-90
2023/06/13 05:37:38;;;;;;;5.13;4.28;;;20.10;64.60;;;;;;5076918;28;20052;-89
2023/06/13 05:40:10;;;;;;;5.43;4.35;;;20.20;64.50;;;;;;5061007;28;20442;-88
2023/06/13 05:42:40;;;;;;;5.25;4.57;;;20.20;64.30;;;;;;5076930;28;20385;-89
2023/06/13 05:45:07;;;;;;;6.17;4.40;;;20.20;64.30;;;;;;5077340;28;20019;-89
2023/06/13 05:47:36;;;;;;;6.55;4.68;;;20.10;64.40;;;;;;5076711;28;20266;-89
2023/06/13 05:50:01;;;;;;;6.35;4.32;;;20.20;64.40;;;;;;5076936;28;20086;-87
2023/06/13 05:52:27;;;;;;;5.55;4.18;;;20.20;64.30;;;;;;5077087;28;20033;-88
2023/06/13 05:54:53;;;;;;;5.40;4.03;;;20.20;64.20;;;;;;5077580;28;20583;-88
2023/06/13 05:57:19;;;;;;;4.28;3.88;;;20.30;64.20;;;;;;5078505;28;20028;-87
2023/06/13 05:59:45;;;;;;;5.03;4.18;;;20.40;64.20;;;;;;5077897;28;20140;-88
2023/06/13 06:02:13;;;;;;;5.88;3.63;;;20.40;64.20;;;;;;5064381;28;20094;-88
2023/06/13 06:04:39;;;;;;;6.22;3.90;;;20.50;64.20;;;;;;5094421;28;20013;-89
2023/06/13 06:07:05;;;;;;;7.00;4.22;;;20.50;64.20;;;;;;5100181;28;20084;-89
2023/06/13 06:09:31;;;;;;;4.25;3.67;;;20.50;64.20;;;;;;5100190;28;20024;-90
2023/06/13 06:11:57;;;;;;;3.92;3.60;;;20.60;64.20;;;;;;5099142;28;20032;-89
2023/06/13 06:14:22;;;;;;;5.75;4.10;;;20.60;64.20;;;;;;5083302;28;20079;-87
2023/06/13 06:16:55;;;;;;;5.18;4.20;;;20.60;64.20;;;;;;5098898;28;20025;-90
2023/06/13 06:19:20;;;;;;;5.03;4.05;;;20.70;64.30;;;;;;5081573;28;20028;-90
2023/06/13 06:21:46;;;;;;;5.60;4.18;;;20.70;64.30;;;;;;5077071;28;20032;-89
2023/06/13 06:24:12;;;;;;;5.53;4.10;;;20.70;64.30;;;;;;5043958;28;20389;-89
2023/06/13 06:26:40;;;;;;;5.88;4.18;;;20.70;64.30;;;;;;5059799;28;20090;-89
2023/06/13 06:29:06;;;;;;;6.55;3.90;;;20.80;64.30;;;;;;5076540;28;20082;-89
2023/06/13 06:31:32;;;;;;;4.25;3.80;;;20.90;64.30;;;;;;5059840;28;20032;-88
2023/06/13 06:33:58;;;;;;;6.32;4.30;;;20.90;64.30;;;;;;5074905;28;20437;-88
2023/06/13 06:36:24;;;;;;;5.15;3.70;;;21.00;64.30;;;;;;5059104;28;20056;-89
2023/06/13 06:38:50;;;;;;;5.88;4.10;;;21.10;64.30;;;;;;5076560;28;20362;-89
2023/06/13 06:41:16;;;;;;;4.00;3.60;;;21.20;64.40;;;;;;5075374;28;20021;-87
2023/06/13 06:43:42;;;;;;;5.07;4.10;;;21.20;64.20;;;;;;5075898;28;20024;-89
2023/06/13 06:46:10;;;;;;;5.35;4.38;;;21.20;64.20;;;;;;5058972;28;20090;-88
2023/06/13 06:48:36;;;;;;;4.82;3.38;;;21.30;64.30;;;;;;5058984;28;20021;-88
2023/06/13 06:51:02;;;;;;;4.25;3.83;;;21.40;64.30;;;;;;5059321;28;20033;-90
2023/06/13 06:53:28;;;;;;;5.20;3.90;;;21.50;64.40;;;;;;5059005;28;20043;-90
2023/06/13 06:55:54;;;;;;;7.40;4.20;;;21.50;64.20;;;;;;5075972;28;20058;-89
2023/06/13 06:58:20;;;;;;;5.25;3.60;;;21.60;64.10;;;;;;5075591;28;20150;-89
2023/06/13 07:00:46;;;;;;;4.95;4.00;;;21.70;64.10;;;;;;5058715;28;20030;-90
2023/06/13 07:03:11;;;;;;;5.25;3.85;;;21.80;64.00;;;;;;5059224;28;20462;-89
2023/06/13 07:05:41;;;;;;;4.88;4.03;;;21.80;63.80;;;;;;5076623;28;20078;-89
2023/06/13 07:08:06;;;;;;;5.57;4.15;;;21.90;63.80;;;;;;5075676;28;20063;-89
2023/06/13 07:10:32;;;;;;;4.55;4.03;;;22.00;63.70;;;;;;5075330;28;20032;-90
2023/06/13 07:12:58;;;;;;;5.18;3.85;;;22.00;63.70;;;;;;5058831;28;20032;-89
2023/06/13 07:15:24;;;;;;;3.72;3.38;;;22.10;63.70;;;;;;5074883;28;20385;-89
2023/06/13 07:17:50;;;;;;;4.03;3.60;;;22.20;63.70;;;;;;5058307;28;20067;-89
2023/06/13 07:20:16;;;;;;;6.05;3.83;;;22.30;63.60;;;;;;5076214;28;20028;-90
2023/06/13 07:22:42;;;;;;;3.78;3.38;;;22.40;63.30;;;;;;5074876;28;20033;-89
2023/06/13 07:25:08;;;;;;;4.28;3.40;;;22.50;63.10;;;;;;5075161;28;20033;-89
2023/06/13 07:27:34;;;;;;;4.72;4.22;;;22.50;63.00;;;;;;5074513;28;20393;-89
2023/06/13 07:29:59;;;;;;;5.75;4.03;;;22.60;62.70;;;;;;5075999;28;20017;-89
2023/06/13 07:32:26;;;;;;;4.20;3.80;;;22.70;62.40;;;;;;5074243;28;20108;-90
2023/06/13 07:34:51;;;;;;;4.68;3.90;;;22.70;62.20;;;;;;5058265;28;20032;-88
2023/06/13 07:37:17;;;;;;;4.75;3.70;;;22.80;62.10;;;;;;5057979;28;20095;-89
2023/06/13 07:39:43;;;;;;;6.97;3.90;;;22.90;62.10;;;;;;5074051;28;20059;-90
2023/06/13 07:42:09;;;;;;;4.20;3.72;;;23.00;62.40;;;;;;5074715;28;20029;-90
2023/06/13 07:44:34;;;;;;;4.95;3.47;;;23.00;61.40;;;;;;5057667;28;20028;-89
2023/06/13 07:47:00;;;;;;;4.30;3.42;;;23.10;61.40;;;;;;5075731;28;20056;-89
2023/06/13 07:49:26;;;;;;;4.28;3.80;;;23.20;61.20;;;;;;5041119;28;20026;-89
2023/06/13 07:51:51;;;;;;;4.95;3.47;;;23.20;61.10;;;;;;5075556;28;20043;-90
2023/06/13 07:54:17;;;;;;;5.05;3.92;;;23.30;60.90;;;;;;5075651;28;20020;-90
2023/06/13 07:56:44;;;;;;;6.70;3.78;;;23.30;60.50;;;;;;5074295;28;20115;-89
2023/06/13 07:59:10;;;;;;;5.65;3.80;;;23.40;60.40;;;;;;5075200;28;20063;-90
2023/06/13 08:01:36;;;;;;;6.72;4.13;;;23.40;60.20;;;;;;5045444;28;20120;-90
2023/06/13 08:04:03;;;;;;;5.15;3.72;;;23.50;60.30;;;;;;5089022;28;20049;-89
2023/06/13 08:06:30;;;;;;;5.97;3.60;;;23.50;60.30;;;;;;5096998;28;20088;-88
2023/06/13 08:08:56;;;;;;;5.90;3.42;;;23.60;60.30;;;;;;5097988;28;20014;-90
2023/06/13 08:11:21;;;;;;;4.47;3.53;;;23.70;59.90;;;;;;5097668;28;20009;-90
2023/06/13 08:13:47;;;;;;;4.13;3.70;;;23.80;59.50;;;;;;5098065;28;20009;-88
2023/06/13 08:16:13;;;;;;;4.97;3.72;;;23.80;59.20;;;;;;5078955;28;20021;-89
2023/06/13 08:18:39;;;;;;;5.65;3.40;;;23.90;59.10;;;;;;5077781;28;20077;-94
2023/06/13 08:21:04;;;;;;;5.00;3.63;;;23.90;59.10;;;;;;5077950;28;20016;-89
2023/06/13 08:23:32;;;;;;;5.03;3.45;;;24.00;59.00;;;;;;5058754;28;20040;-88
2023/06/13 08:25:58;;;;;;;4.93;3.47;;;24.00;59.00;;;;;;5060433;28;20043;-89
2023/06/13 08:28:25;;;;;;;6.47;3.88;;;24.10;58.80;;;;;;5059127;28;20466;-89
2023/06/13 08:30:51;;;;;;;6.47;3.63;;;24.10;58.10;;;;;;5076238;28;20024;-89
2023/06/13 08:33:17;;;;;;;6.78;3.63;;;24.10;58.00;;;;;;5075251;28;20082;-88
2023/06/13 08:35:44;;;;;;;6.35;3.85;;;24.20;58.20;;;;;;5056984;28;20054;-90
2023/06/13 08:38:11;;;;;;;3.90;3.50;;;24.30;58.00;;;;;;5073962;28;20039;-89
2023/06/13 08:40:37;;;;;;;4.55;3.60;;;24.30;57.90;;;;;;5073953;28;20025;-89
2023/06/13 08:43:03;;;;;;;3.63;3.30;;;24.40;58.10;;;;;;5056608;28;20094;-89
2023/06/13 08:45:29;;;;;;;3.63;3.22;;;24.50;58.30;;;;;;5075036;28;20033;-89
2023/06/13 08:48:02;;;;;;;6.63;3.15;;;24.50;58.80;;;;;;5073508;28;20023;-88
2023/06/13 08:50:28;;;;;;;3.50;3.20;;;24.70;58.30;;;;;;5073646;28;20049;-90
2023/06/13 08:52:57;;;;;;;4.93;3.42;;;24.70;58.20;;;;;;5056952;28;20039;-89
2023/06/13 08:55:24;;;;;;;3.70;3.30;;;24.80;58.00;;;;;;5073524;28;20127;-90
2023/06/13 08:57:54;;;;;;;4.07;3.70;;;24.90;57.80;;;;;;5072747;28;20088;-89
2023/06/13 09:00:22;;;;;;;3.80;3.45;;;24.90;57.40;;;;;;5073411;28;20025;-90
2023/06/13 09:02:52;;;;;;;4.00;3.17;;;25.00;57.60;;;;;;5073356;28;20194;-89
2023/06/13 09:05:18;;;;;;;4.23;3.30;;;25.10;57.70;;;;;;5057423;28;20028;-89
2023/06/13 09:07:46;;;;;;;4.60;3.45;;;25.10;57.40;;;;;;5073484;28;20378;-89
2023/06/13 09:10:12;;;;;;;3.70;3.40;;;25.10;57.10;;;;;;5073149;28;20013;-89
2023/06/13 09:12:43;;;;;;;4.25;3.15;;;25.20;57.10;;;;;;5074408;28;20103;-90
2023/06/13 09:15:10;;;;;;;3.25;2.92;;;25.30;57.10;;;;;;5073097;28;20031;-89
2023/06/13 09:17:36;;;;;;;3.67;3.20;;;25.30;56.50;;;;;;5074049;28;20142;-88
2023/06/13 09:20:05;;;;;;;4.25;3.20;;;25.30;56.20;;;;;;5073092;28;20056;-88
2023/06/13 09:22:36;;;;;;;3.33;2.92;;;25.40;56.30;;;;;;5073040;28;20036;-90
2023/06/13 09:25:22;;;;;;;3.83;3.10;;;25.50;56.90;;;;;;5073546;28;20044;-89
2023/06/13 09:27:47;;;;;;;3.88;3.40;;;25.60;56.40;;;;;;5073018;28;20020;-90
2023/06/13 09:30:16;;;;;;;2.83;2.53;;;25.70;56.40;;;;;;5056476;28;20123;-89
2023/06/13 09:32:49;;;;;;;3.50;3.20;;;25.70;56.20;;;;;;5074017;28;20090;-89
2023/06/13 09:35:17;;;;;;;4.85;3.22;;;25.80;55.80;;;;;;5073018;28;20020;-89
2023/06/13 09:37:43;;;;;;;4.80;3.45;;;25.80;54.30;;;;;;5072694;28;20500;-90
2023/06/13 09:40:10;;;;;;;3.75;3.22;;;25.80;53.40;;;;;;5073079;28;20028;-90
2023/06/13 09:42:38;;;;;;;3.88;3.30;;;25.80;53.00;;;;;;5072928;28;20031;-89
2023/06/13 09:45:12;;;;;;;4.03;3.38;;;25.90;53.10;;;;;;5040505;28;20481;-89
2023/06/13 09:47:40;;;;;;;4.93;3.15;;;25.90;52.90;;;;;;5072845;28;20025;-89
2023/06/13 09:50:08;;;;;;;3.13;2.83;;;25.90;53.10;;;;;;5072922;28;20025;-89
2023/06/13 09:52:33;;;;;;;3.92;3.15;;;26.00;53.20;;;;;;5073030;28;20017;-88
2023/06/13 09:54:59;;;;;;;4.30;3.13;;;26.10;53.40;;;;;;5072492;28;20027;-89
2023/06/13 09:57:31;;;;;;;7.75;3.50;;;26.10;52.90;;;;;;5073323;28;20024;-90
2023/06/13 09:59:57;;;;;;;5.57;3.58;;;26.20;52.30;;;;;;5057256;28;20036;-89
2023/06/13 10:02:25;;;;;;;4.97;3.10;;;26.20;52.10;;;;;;5073211;28;20389;-89
2023/06/13 10:04:54;;;;;;;3.33;3.03;;;26.20;52.00;;;;;;5056512;28;20074;-89
2023/06/13 10:07:26;;;;;;;3.53;3.08;;;26.20;51.90;;;;;;5075017;28;20090;-90
2023/06/13 10:09:58;;;;;;;3.83;3.40;;;26.20;51.50;;;;;;5088398;28;20051;-89
2023/06/13 10:12:25;;;;;;;3.45;3.15;;;26.20;51.90;;;;;;5099491;28;20531;-89
2023/06/13 10:14:59;;;;;;;3.63;3.00;;;26.20;51.60;;;;;;5083470;28;20087;-89
2023/06/13 10:17:35;;;;;;;6.47;3.38;;;26.20;51.70;;;;;;5099999;28;20025;-88
2023/06/13 10:26:40;;;;;;;4.15;3.10;;;26.30;51.30;;;;;;5032934;28;20103;-89
2023/06/13 10:29:31;;;;;;;3.67;3.15;;;26.50;51.60;;;;;;5076278;28;20055;-89
2023/06/13 10:32:35;;;;;;;3.90;3.35;;;26.50;51.30;;;;;;5076742;28;20024;-88
2023/06/13 10:35:30;;;;;;;5.00;3.75;;;26.50;51.00;;;;;;5076678;28;20104;-89
2023/06/13 10:38:05;;;;;;;10.07;3.58;;;26.50;50.30;;;;;;5075549;28;20051;-89
2023/06/13 10:41:19;;;;;;;4.43;3.75;;;26.50;50.00;;;;;;5075454;28;20119;-87
2023/06/13 10:44:12;;;;;;;4.95;3.45;;;26.50;49.20;;;;;;5038578;28;20529;-87
2023/06/13 10:46:38;;;;;;;5.90;3.70;;;26.50;49.30;;;;;;5074965;28;20021;-87
2023/06/13 10:49:03;;;;;;;5.05;3.65;;;26.50;49.50;;;;;;5059023;28;20487;-87
2023/06/13 10:51:31;;;;;;;3.65;3.30;;;26.50;49.50;;;;;;5043003;28;20554;-87
2023/06/13 10:54:08;;;;;;;4.55;3.45;;;26.50;49.80;;;;;;5059842;28;20098;-88
2023/06/13 10:56:37;;;;;;;4.18;3.78;;;26.60;50.00;;;;;;5079196;28;20403;-87
2023/06/13 10:59:08;;;;;;;6.80;3.30;;;26.70;49.80;;;;;;5078206;28;20051;-87
2023/06/13 11:01:36;;;;;;;6.10;3.58;;;26.80;49.80;;;;;;5077267;28;20031;-87
2023/06/13 11:04:09;;;;;;;4.25;3.85;;;26.80;49.90;;;;;;5079302;28;20083;-88
2023/06/13 11:06:35;;;;;;;4.22;3.45;;;26.90;49.90;;;;;;5080675;28;20028;-87
2023/06/13 11:09:16;;;;;;;4.10;3.70;;;26.90;49.70;;;;;;5077402;28;20086;-88
2023/06/13 11:12:01;;;;;;;4.68;3.28;;;26.90;49.70;;;;;;5074451;28;20029;-87
2023/06/13 11:14:37;;;;;;;4.43;3.80;;;27.00;49.40;;;;;;5074266;28;20023;-87
2023/06/13 11:17:03;;;;;;;4.38;3.95;;;26.90;49.10;;;;;;5074197;28;20024;-88
2023/06/13 11:19:32;;;;;;;3.60;3.30;;;27.00;49.50;;;;;;5073381;28;20032;-88
2023/06/13 11:22:03;;;;;;;3.80;3.42;;;27.10;49.80;;;;;;5058000;28;20162;-87
2023/06/13 11:24:35;;;;;;;3.45;3.03;;;27.10;49.80;;;;;;5073492;28;20036;-87
2023/06/13 11:27:06;;;;;;;4.30;3.60;;;27.20;50.00;;;;;;5073623;28;20473;-87
2023/06/13 11:29:36;;;;;;;4.18;3.75;;;27.20;49.90;;;;;;5073811;28;20415;-87
2023/06/13 11:32:04;;;;;;;4.20;3.43;;;27.20;49.00;;;;;;5057364;28;20088;-88
2023/06/13 11:34:33;;;;;;;5.32;4.15;;;27.30;49.00;;;;;;5057025;28;20374;-87
2023/06/13 11:37:18;;;;;;;4.22;3.80;;;27.30;48.60;;;;;;5073419;28;20052;-87
2023/06/13 11:39:51;;;;;;;4.00;3.60;;;27.30;48.40;;;;;;5073657;28;20027;-87
2023/06/13 11:42:17;;;;;;;3.90;3.50;;;27.40;49.00;;;;;;5073436;28;20027;-87
2023/06/13 11:44:43;;;;;;;5.10;3.67;;;27.40;49.30;;;;;;5074822;28;20030;-88
2023/06/13 11:47:13;;;;;;;4.38;3.78;;;27.50;48.80;;;;;;5056568;28;20482;-88
2023/06/13 11:49:38;;;;;;;3.72;3.42;;;27.50;48.60;;;;;;5073851;28;20020;-88
2023/06/13 11:52:15;;;;;;;3.92;3.53;;;27.50;48.80;;;;;;5040398;28;20030;-88
2023/06/13 11:54:47;;;;;;;5.03;3.55;;;27.50;48.60;;;;;;5073826;28;20062;-88
2023/06/13 11:57:14;;;;;;;4.90;3.80;;;27.50;48.70;;;;;;5073592;28;20021;-87
2023/06/13 11:59:40;;;;;;;4.88;4.22;;;27.50;48.50;;;;;;5073915;28;20077;-87
2023/06/13 12:02:07;;;;;;;5.90;3.42;;;27.50;48.40;;;;;;5074480;28;20477;-89
2023/06/13 12:04:33;;;;;;;4.78;3.58;;;27.60;48.10;;;;;;5075121;28;20397;-89
2023/06/13 12:07:06;;;;;;;5.80;3.90;;;27.50;48.30;;;;;;5058452;28;20064;-88
2023/06/13 12:09:32;;;;;;;4.28;3.55;;;27.60;48.10;;;;;;5074085;28;20071;-87
2023/06/13 12:11:58;;;;;;;4.90;3.90;;;27.60;48.30;;;;;;5075258;28;20032;-87
2023/06/13 12:14:30;;;;;;;4.72;3.40;;;27.60;47.90;;;;;;5076068;28;20032;-88
2023/06/13 12:17:00;;;;;;;4.97;3.78;;;27.70;47.60;;;;;;5061605;28;20017;-88
2023/06/13 12:19:27;;;;;;;4.40;3.95;;;27.60;47.00;;;;;;5092391;28;20055;-87
2023/06/13 12:22:08;;;;;;;4.88;3.70;;;27.60;47.00;;;;;;5095869;28;20017;-91
2023/06/13 12:24:42;;;;;;;4.57;3.42;;;27.60;46.90;;;;;;5095243;28;20023;-91
2023/06/13 12:27:33;;;;;;;3.60;3.30;;;27.60;47.30;;;;;;5092346;28;20092;-89
2023/06/13 12:30:29;;;;;;;4.07;3.67;;;27.70;47.50;;;;;;5091669;28;20035;-89
2023/06/13 12:32:57;;;;;;;6.25;4.05;;;27.70;47.30;;;;;;5077300;28;20032;-92
2023/06/13 12:35:32;;;;;;;5.63;4.32;;;27.70;47.30;;;;;;5076188;28;20024;-91
2023/06/13 12:38:04;;;;;;;4.32;3.70;;;27.70;47.20;;;;;;5072958;28;20058;-91
2023/06/13 12:43:48;;;;;;;3.85;3.50;;;27.70;47.80;;;;;;5075190;28;20029;-90
2023/06/13 12:46:17;;;;;;;3.75;3.42;;;27.80;47.80;;;;;;5073504;28;20021;-89
2023/06/13 12:49:10;;;;;;;;;;;;;;;;;;;;;
2023/06/13 12:51:54;;;;;;;;;;;;;;;;;;;;;
2023/06/13 12:54:26;;;;;;;5.03;3.80;;;27.80;47.50;;;;;;5074731;28;20032;-92
2023/06/13 12:57:13;;;;;;;4.70;4.07;;;27.90;47.70;;;;;;5073711;28;20363;-93
2023/06/13 13:00:06;;;;;;;4.97;3.72;;;27.90;47.80;;;;;;5074669;28;20450;-91
2023/06/13 13:02:46;;;;;;;5.43;4.20;;;28.00;48.00;;;;;;5062554;28;20032;-90
2023/06/13 13:18:49;;;;;;;5.07;3.85;;;28.10;47.60;;;;;;5074122;28;20040;-87
2023/06/13 13:21:17;;;;;;;5.40;3.90;;;28.10;47.70;;;;;;5072246;28;20100;-87
2023/06/13 13:23:48;;;;;;;4.32;3.88;;;28.00;47.70;;;;;;5074352;28;20024;-88